Time;durP1;ratioP1;P1;durP2;ratioP2;P2;SDS_P1;SDS_P2;PMS_P1;PMS_P2;Temp;Humidity;BMP_temperature;BMP_pressure;BME280_temperature;BME280_humidity;BME280_pressure;Samples;Min_cycle;Max_cycle;Signal;HPM_P1;HPM_P2
2024/03/17 00:01:58;;;;;;;8.27;3.75;;;23.50;55.90;;;;;;6179439;28;81179;-76
2024/03/17 00:04:59;;;;;;;6.40;4.07;;;23.50;56.20;;;;;;6189853;28;80303;-73
2024/03/17 00:07:59;;;;;;;4.88;3.38;;;23.50;55.90;;;;;;6189826;28;80717;-59
2024/03/17 00:11:00;;;;;;;4.93;3.60;;;23.50;56.00;;;;;;6199813;28;80622;-59
2024/03/17 00:14:01;;;;;;;5.25;3.50;;;23.50;55.90;;;;;;6197834;28;80373;-59
2024/03/17 00:17:01;;;;;;;5.53;3.63;;;23.50;56.00;;;;;;6190847;28;81792;-59
2024/03/17 00:20:04;;;;;;;6.15;3.58;;;23.50;56.10;;;;;;6177242;28;80436;-59
2024/03/17 00:23:09;;;;;;;5.38;3.33;;;23.50;56.00;;;;;;6177834;28;80675;-59
2024/03/17 00:26:09;;;;;;;7.18;4.00;;;23.50;55.90;;;;;;6177896;28;83163;-60
2024/03/17 00:29:10;;;;;;;5.88;3.40;;;23.50;55.90;;;;;;6177084;28;82573;-60
2024/03/17 00:32:11;;;;;;;5.60;3.80;;;23.50;55.80;;;;;;6177636;28;80460;-60
2024/03/17 00:35:14;;;;;;;5.93;3.65;;;23.40;55.50;;;;;;6178734;28;80287;-60
2024/03/17 00:38:14;;;;;;;8.18;3.92;;;23.50;55.60;;;;;;6174460;28;80658;-61
2024/03/17 00:41:15;;;;;;;5.65;3.65;;;23.40;55.50;;;;;;6178069;28;80735;-61
2024/03/17 00:44:16;;;;;;;5.68;3.83;;;23.40;55.60;;;;;;6191681;28;80339;-60
2024/03/17 00:47:16;;;;;;;6.50;3.50;;;23.50;55.60;;;;;;6177890;28;80268;-61
2024/03/17 00:50:17;;;;;;;6.00;3.40;;;23.50;55.40;;;;;;6178185;28;81393;-60
2024/03/17 00:53:17;;;;;;;6.20;3.40;;;23.50;55.70;;;;;;6174384;28;81816;-61
2024/03/17 00:56:18;;;;;;;4.55;3.38;;;23.50;55.40;;;;;;6177345;28;81065;-59
2024/03/17 00:59:18;;;;;;;5.13;3.70;;;23.50;55.40;;;;;;6177613;28;80399;-59
2024/03/17 01:02:20;;;;;;;6.45;3.65;;;23.50;55.50;;;;;;6175656;28;80394;-58
2024/03/17 01:05:22;;;;;;;5.70;3.10;;;23.50;55.40;;;;;;6189843;28;81566;-59
2024/03/17 01:08:22;;;;;;;6.68;3.42;;;23.50;55.50;;;;;;6175061;28;81103;-59
2024/03/17 01:11:24;;;;;;;4.90;3.25;;;23.40;55.50;;;;;;6176714;28;81998;-59
2024/03/17 01:14:25;;;;;;;8.07;3.75;;;23.40;55.50;;;;;;6175959;28;80877;-59
2024/03/17 01:17:25;;;;;;;7.53;3.10;;;23.40;55.40;;;;;;6176627;28;83597;-60
2024/03/17 01:20:26;;;;;;;3.35;2.38;;;23.50;55.20;;;;;;6177183;28;88223;-60
2024/03/17 01:23:27;;;;;;;6.47;3.05;;;23.50;55.60;;;;;;6179229;28;80925;-60
2024/03/17 01:26:28;;;;;;;5.75;3.05;;;23.40;55.00;;;;;;6181221;28;80645;-59
2024/03/17 01:29:28;;;;;;;3.90;2.75;;;23.40;54.90;;;;;;6181606;28;82217;-59
2024/03/17 01:32:29;;;;;;;3.78;2.80;;;23.40;54.90;;;;;;6180122;28;80544;-59
2024/03/17 01:35:30;;;;;;;3.75;2.50;;;23.40;54.80;;;;;;6185227;28;80938;-59
2024/03/17 01:38:30;;;;;;;4.63;2.70;;;23.40;54.90;;;;;;6187634;28;81135;-59
2024/03/17 01:41:31;;;;;;;2.92;2.30;;;23.40;54.60;;;;;;6179390;28;81399;-55
2024/03/17 01:44:32;;;;;;;3.55;2.30;;;23.30;54.60;;;;;;6194222;28;81654;-56
2024/03/17 01:47:32;;;;;;;3.22;2.20;;;23.40;54.70;;;;;;6168333;28;80294;-54
2024/03/17 01:50:33;;;;;;;3.17;2.38;;;23.30;54.80;;;;;;6178928;28;82719;-56
2024/03/17 01:53:33;;;;;;;2.45;2.05;;;23.30;54.30;;;;;;6170941;28;81697;-56
2024/03/17 01:56:34;;;;;;;3.50;2.22;;;23.30;54.40;;;;;;6178448;28;80482;-56
2024/03/17 01:59:34;;;;;;;3.70;1.90;;;23.30;54.10;;;;;;6180593;28;80984;-72
2024/03/17 02:02:35;;;;;;;3.97;2.53;;;23.30;54.30;;;;;;6181051;28;80346;-75
2024/03/17 02:05:37;;;;;;;3.42;2.00;;;23.30;54.30;;;;;;6196357;28;80208;-74
2024/03/17 02:08:37;;;;;;;4.35;2.38;;;23.30;54.40;;;;;;6180036;28;80491;-74
2024/03/17 02:11:38;;;;;;;2.95;1.80;;;23.30;54.30;;;;;;6180654;28;80402;-73
2024/03/17 02:14:38;;;;;;;2.78;2.10;;;23.30;54.40;;;;;;6190893;28;80161;-72
2024/03/17 02:17:39;;;;;;;3.88;2.55;;;23.30;54.50;;;;;;6179992;28;82461;-60
2024/03/17 02:20:55;;;;;;;3.13;2.28;;;23.30;54.40;;;;;;6179063;28;80344;-59
2024/03/17 02:23:56;;;;;;;2.83;1.90;;;23.30;54.70;;;;;;6177758;28;80604;-59
2024/03/17 02:26:56;;;;;;;2.92;1.73;;;23.30;54.70;;;;;;6178288;28;81529;-59
2024/03/17 02:29:57;;;;;;;2.83;1.75;;;23.30;54.60;;;;;;6179295;28;82422;-59
2024/03/17 02:32:57;;;;;;;2.85;1.95;;;23.30;54.20;;;;;;6177374;28;81316;-59
2024/03/17 02:35:59;;;;;;;2.22;1.77;;;23.20;54.10;;;;;;6178616;28;80739;-58
2024/03/17 02:42:19;;;;;;;3.33;1.80;;;23.20;54.00;;;;;;6177707;28;80740;-58
2024/03/17 02:45:21;;;;;;;2.58;1.80;;;23.20;53.80;;;;;;6178037;28;81257;-59
2024/03/17 02:48:22;;;;;;;3.30;2.20;;;23.20;53.70;;;;;;6177190;28;80975;-58
2024/03/17 02:51:24;;;;;;;3.95;1.70;;;23.20;53.60;;;;;;6179497;28;80518;-58
2024/03/17 02:54:24;;;;;;;2.88;2.00;;;23.20;53.70;;;;;;6178114;28;81230;-58
2024/03/17 02:57:29;;;;;;;4.53;2.38;;;23.20;53.60;;;;;;6177823;28;80889;-59
2024/03/17 03:00:29;;;;;;;2.15;1.58;;;23.20;53.50;;;;;;6177579;28;80663;-59
2024/03/17 03:03:30;;;;;;;3.42;1.80;;;23.20;53.50;;;;;;6176784;28;81834;-58
2024/03/17 03:06:30;;;;;;;2.80;1.77;;;23.20;53.20;;;;;;6177039;28;83598;-59
2024/03/17 03:09:31;;;;;;;3.58;2.15;;;23.20;53.20;;;;;;6177517;28;80809;-59
2024/03/17 03:12:32;;;;;;;2.78;1.80;;;23.20;53.30;;;;;;6177762;28;81348;-59
2024/03/17 03:15:32;;;;;;;2.83;1.98;;;23.20;53.10;;;;;;6177160;28;80653;-60
2024/03/17 03:18:33;;;;;;;2.72;2.15;;;23.20;53.10;;;;;;6177422;28;80192;-60
2024/03/17 03:21:34;;;;;;;4.03;1.92;;;23.20;52.90;;;;;;6176488;28;81665;-60
2024/03/17 03:24:34;;;;;;;2.63;1.75;;;23.20;52.90;;;;;;6177776;28;80444;-59
2024/03/17 03:27:35;;;;;;;2.20;1.88;;;23.20;52.80;;;;;;6177060;28;81917;-60
2024/03/17 03:30:35;;;;;;;2.70;1.83;;;23.20;52.80;;;;;;6177570;28;81082;-59
2024/03/17 03:33:36;;;;;;;3.30;1.88;;;23.20;52.70;;;;;;6182035;28;80616;-58
2024/03/17 03:36:36;;;;;;;4.00;1.67;;;23.20;52.60;;;;;;6188067;28;81200;-59
2024/03/17 03:39:37;;;;;;;2.95;1.70;;;23.20;52.60;;;;;;6186706;28;80901;-58
2024/03/17 03:42:37;;;;;;;3.53;1.60;;;23.20;52.60;;;;;;6177988;28;81565;-59
2024/03/17 03:45:38;;;;;;;4.28;1.42;;;23.20;52.50;;;;;;6177698;28;80766;-59
2024/03/17 03:48:39;;;;;;;2.17;1.40;;;23.20;52.30;;;;;;6176657;28;80527;-54
2024/03/17 03:51:39;;;;;;;2.95;2.00;;;23.20;52.30;;;;;;6176089;28;80579;-54
2024/03/17 03:54:40;;;;;;;2.92;2.13;;;23.20;52.20;;;;;;6176370;28;81249;-53
2024/03/17 03:57:41;;;;;;;3.35;1.60;;;23.20;52.20;;;;;;6175126;28;80305;-50
2024/03/17 04:00:42;;;;;;;2.15;1.70;;;23.20;52.10;;;;;;6176978;28;80988;-52
2024/03/17 04:03:42;;;;;;;2.28;1.80;;;23.20;52.00;;;;;;6174866;28;80920;-50
2024/03/17 04:06:43;;;;;;;4.10;1.98;;;23.20;51.90;;;;;;6176756;28;81536;-54
2024/03/17 04:09:43;;;;;;;4.00;1.55;;;23.20;51.90;;;;;;6176798;28;80068;-56
2024/03/17 04:12:44;;;;;;;4.20;2.10;;;23.20;51.70;;;;;;6168827;28;80253;-55
2024/03/17 04:15:45;;;;;;;2.35;1.60;;;23.10;51.60;;;;;;6171174;28;82992;-56
2024/03/17 04:18:45;;;;;;;3.55;1.80;;;23.20;51.60;;;;;;6175911;28;80762;-56
2024/03/17 04:21:46;;;;;;;4.13;1.75;;;23.20;51.50;;;;;;6176289;28;80938;-55
2024/03/17 04:24:48;;;;;;;2.17;1.50;;;23.20;51.80;;;;;;6175706;28;80361;-56
2024/03/17 04:27:49;;;;;;;2.88;1.63;;;23.20;51.70;;;;;;6176986;28;80349;-55
2024/03/17 04:30:50;;;;;;;2.72;1.63;;;23.30;51.40;;;;;;6175398;28;81417;-53
2024/03/17 04:33:51;;;;;;;5.18;1.80;;;23.30;51.40;;;;;;6175371;28;81748;-53
2024/03/17 04:36:51;;;;;;;5.47;2.00;;;23.30;51.20;;;;;;6176045;28;80397;-54
2024/03/17 04:39:57;;;;;;;5.90;1.83;;;23.40;50.70;;;;;;6175594;28;80341;-55
2024/03/17 04:42:57;;;;;;;2.55;1.73;;;23.40;50.70;;;;;;6176387;28;81499;-53
2024/03/17 04:45:58;;;;;;;2.92;1.90;;;23.40;50.30;;;;;;6174819;28;81473;-55
2024/03/17 04:48:58;;;;;;;2.85;1.80;;;23.50;50.60;;;;;;6175944;28;80547;-53
2024/03/17 04:51:59;;;;;;;2.83;1.45;;;23.50;50.50;;;;;;6176606;28;82694;-50
2024/03/17 04:54:59;;;;;;;4.28;1.73;;;23.50;50.40;;;;;;6175343;28;82043;-54
2024/03/17 04:58:00;;;;;;;4.50;2.05;;;23.50;50.30;;;;;;6174171;28;80371;-54
2024/03/17 05:01:01;;;;;;;4.68;1.70;;;23.50;50.30;;;;;;6175040;28;80757;-52
2024/03/17 05:04:02;;;;;;;2.47;1.67;;;23.50;50.30;;;;;;6178669;28;80975;-70
2024/03/17 05:07:03;;;;;;;2.83;1.73;;;23.50;50.10;;;;;;6185439;28;80757;-73
2024/03/17 05:10:03;;;;;;;4.07;1.95;;;23.60;50.20;;;;;;6176480;28;81334;-73
2024/03/17 05:13:04;;;;;;;5.60;1.92;;;23.60;50.00;;;;;;6179109;28;80681;-76
2024/03/17 05:16:05;;;;;;;2.45;1.67;;;23.60;50.00;;;;;;6178129;28;80539;-76
2024/03/17 05:19:06;;;;;;;4.80;2.05;;;23.60;49.80;;;;;;6177556;28;80809;-75
2024/03/17 05:22:06;;;;;;;3.35;1.63;;;23.60;49.90;;;;;;6176693;28;80378;-60
2024/03/17 05:25:07;;;;;;;3.80;1.55;;;23.60;49.70;;;;;;6176048;28;80357;-59
2024/03/17 05:28:08;;;;;;;3.60;1.42;;;23.60;49.60;;;;;;6175548;28;80258;-59
2024/03/17 05:31:09;;;;;;;2.95;1.48;;;23.60;49.50;;;;;;6167063;28;80622;-59
2024/03/17 05:34:10;;;;;;;3.97;1.95;;;23.70;49.40;;;;;;6175134;28;80713;-59
2024/03/17 05:37:10;;;;;;;3.88;1.80;;;23.70;49.60;;;;;;6174631;28;80653;-59
2024/03/17 05:40:14;;;;;;;3.33;1.75;;;23.70;49.30;;;;;;6174772;28;80598;-52
2024/03/17 05:43:14;;;;;;;3.55;1.65;;;23.60;49.00;;;;;;6174397;28;80493;-51
2024/03/17 05:46:15;;;;;;;4.57;1.73;;;23.70;49.00;;;;;;6175211;28;81502;-53
2024/03/17 05:49:16;;;;;;;2.78;1.77;;;23.70;48.80;;;;;;6175353;28;82441;-51
2024/03/17 05:52:16;;;;;;;3.30;1.80;;;23.70;48.80;;;;;;6175181;28;80255;-50
2024/03/17 05:55:17;;;;;;;3.08;1.73;;;23.60;48.70;;;;;;6174796;28;82162;-50
2024/03/17 05:58:17;;;;;;;3.35;1.75;;;23.70;48.80;;;;;;6176507;28;80511;-79
2024/03/17 06:01:19;;;;;;;3.75;1.52;;;23.70;48.50;;;;;;6168932;28;80546;-76
2024/03/17 06:04:20;;;;;;;3.25;1.48;;;23.70;48.40;;;;;;6174286;28;80377;-72
2024/03/17 06:07:20;;;;;;;5.07;1.50;;;23.70;48.60;;;;;;6182716;28;80358;-73
2024/03/17 06:10:24;;;;;;;2.75;1.45;;;23.70;48.40;;;;;;6179168;28;80524;-72
2024/03/17 06:13:24;;;;;;;3.88;1.77;;;23.70;48.40;;;;;;6179543;28;80961;-73
2024/03/17 06:16:25;;;;;;;4.05;2.05;;;23.70;48.50;;;;;;6180687;28;80622;-55
2024/03/17 06:19:25;;;;;;;4.60;1.60;;;23.70;48.20;;;;;;6178038;28;80579;-56
2024/03/17 06:22:26;;;;;;;4.43;1.92;;;23.70;48.40;;;;;;6178535;28;81304;-55
2024/03/17 06:25:27;;;;;;;3.30;1.85;;;23.60;48.20;;;;;;6177650;28;81095;-57
2024/03/17 06:28:29;;;;;;;2.60;1.40;;;23.70;48.30;;;;;;6177660;28;80199;-54
2024/03/17 06:31:31;;;;;;;3.90;1.60;;;23.60;48.00;;;;;;6169800;28;80893;-53
2024/03/17 06:34:31;;;;;;;4.18;1.80;;;23.60;48.00;;;;;;6167373;28;86015;-57
2024/03/17 06:37:33;;;;;;;2.40;1.73;;;23.60;48.00;;;;;;6176996;28;84181;-54
2024/03/17 06:40:33;;;;;;;3.95;1.75;;;23.60;48.30;;;;;;6177466;28;80807;-52
2024/03/17 06:43:34;;;;;;;2.70;1.30;;;23.60;48.50;;;;;;6177566;28;81118;-54
2024/03/17 06:46:34;;;;;;;4.80;1.60;;;23.60;48.40;;;;;;6176830;28;82408;-56
2024/03/17 06:49:35;;;;;;;3.58;1.60;;;23.60;48.10;;;;;;6176081;28;80450;-56
2024/03/17 06:52:35;;;;;;;2.92;1.50;;;23.60;48.10;;;;;;6175241;28;81278;-55
2024/03/17 06:55:36;;;;;;;3.58;1.55;;;23.60;48.10;;;;;;6177119;28;81727;-51
2024/03/17 06:58:37;;;;;;;2.78;1.40;;;23.60;48.20;;;;;;6177022;28;81504;-55
2024/03/17 07:01:38;;;;;;;3.78;1.70;;;23.60;48.10;;;;;;6178240;28;82065;-56
2024/03/17 07:04:38;;;;;;;4.47;1.55;;;23.60;48.00;;;;;;6163196;28;81006;-56
2024/03/17 07:07:39;;;;;;;3.38;1.63;;;23.60;48.00;;;;;;6153356;28;81390;-52
2024/03/17 07:10:39;;;;;;;3.53;1.33;;;23.60;47.90;;;;;;6153307;28;80617;-52
2024/03/17 07:13:41;;;;;;;4.50;1.73;;;23.60;47.70;;;;;;6166241;28;80938;-53
2024/03/17 07:16:42;;;;;;;2.90;1.50;;;23.60;47.40;;;;;;6175217;28;80372;-54
2024/03/17 07:19:42;;;;;;;3.97;1.70;;;23.60;47.50;;;;;;6175059;28;81193;-56
2024/03/17 07:22:43;;;;;;;3.38;1.58;;;23.60;47.70;;;;;;6175686;28;80547;-56
2024/03/17 07:25:43;;;;;;;4.28;1.77;;;23.60;47.70;;;;;;6172791;28;80642;-56
2024/03/17 07:28:44;;;;;;;4.38;2.30;;;23.60;47.50;;;;;;6175434;28;80589;-54
2024/03/17 07:31:45;;;;;;;3.13;1.38;;;23.60;47.70;;;;;;6175641;28;80776;-77
2024/03/17 07:34:46;;;;;;;3.83;1.90;;;23.70;47.70;;;;;;6175614;28;81439;-70
2024/03/17 07:37:46;;;;;;;3.17;1.88;;;23.60;47.30;;;;;;6169604;28;88224;-72
2024/03/17 07:40:47;;;;;;;3.83;1.73;;;23.60;47.50;;;;;;6178907;28;81359;-77
2024/03/17 07:43:47;;;;;;;4.35;1.98;;;23.60;47.20;;;;;;6167158;28;80554;-67
2024/03/17 07:46:48;;;;;;;5.75;1.83;;;23.70;47.50;;;;;;6175955;28;80216;-76
2024/03/17 07:49:48;;;;;;;2.08;1.40;;;23.70;47.60;;;;;;6175251;28;80320;-73
2024/03/17 07:52:49;;;;;;;3.38;1.77;;;23.70;47.60;;;;;;6171619;28;81990;-77
2024/03/17 07:55:49;;;;;;;2.67;1.75;;;23.70;47.50;;;;;;6179666;28;80550;-78
2024/03/17 07:58:51;;;;;;;4.20;1.77;;;23.70;47.30;;;;;;6180491;28;83193;-74
2024/03/17 08:01:52;;;;;;;3.92;1.83;;;23.70;47.40;;;;;;6178948;28;80412;-70
2024/03/17 08:04:53;;;;;;;3.35;1.70;;;23.70;47.00;;;;;;6173944;28;80554;-74
2024/03/17 08:07:53;;;;;;;2.97;1.48;;;23.70;46.80;;;;;;6175746;28;82771;-76
2024/03/17 08:10:54;;;;;;;3.30;2.00;;;23.70;47.10;;;;;;6179102;28;80128;-74
2024/03/17 08:13:55;;;;;;;4.25;1.80;;;23.70;47.20;;;;;;6180819;28;80964;-76
2024/03/17 08:16:55;;;;;;;3.15;1.42;;;23.80;47.20;;;;;;6180791;28;81045;-70
2024/03/17 08:19:57;;;;;;;3.50;1.48;;;23.80;47.30;;;;;;6177519;28;81091;-69
2024/03/17 08:22:57;;;;;;;5.28;1.60;;;23.80;47.20;;;;;;6164322;28;80825;-76
2024/03/17 08:25:58;;;;;;;3.13;1.58;;;23.80;47.20;;;;;;6167718;28;80294;-61
2024/03/17 08:28:58;;;;;;;3.13;1.27;;;23.80;47.30;;;;;;6153199;28;80630;-61
2024/03/17 08:31:59;;;;;;;3.50;1.48;;;23.80;47.30;;;;;;6158480;28;80418;-62
2024/03/17 08:34:59;;;;;;;2.95;1.45;;;23.80;47.20;;;;;;6166968;28;81056;-61
2024/03/17 08:38:00;;;;;;;3.80;1.85;;;23.80;47.90;;;;;;6150654;28;81292;-61
2024/03/17 08:41:01;;;;;;;3.30;1.67;;;23.80;47.20;;;;;;6166572;28;80456;-61
2024/03/17 08:44:01;;;;;;;3.03;1.98;;;23.80;47.10;;;;;;6157713;28;86551;-61
2024/03/17 08:47:02;;;;;;;2.00;1.60;;;23.80;47.10;;;;;;6167122;28;81485;-61
2024/03/17 08:50:04;;;;;;;4.25;1.70;;;23.80;47.00;;;;;;6172707;28;80150;-61
2024/03/17 08:53:04;;;;;;;5.82;1.80;;;23.80;47.00;;;;;;6177243;28;81368;-61
2024/03/17 08:56:06;;;;;;;3.53;1.60;;;23.80;46.90;;;;;;6170666;28;80865;-61
2024/03/17 08:59:07;;;;;;;4.78;1.70;;;23.80;46.90;;;;;;6166402;28;80212;-61
2024/03/17 09:02:07;;;;;;;3.22;1.40;;;23.80;46.80;;;;;;6159902;28;80593;-59
2024/03/17 09:05:08;;;;;;;3.80;1.60;;;23.80;46.70;;;;;;6155289;28;80905;-60
2024/03/17 09:08:08;;;;;;;3.45;1.63;;;23.80;46.90;;;;;;6166012;28;80422;-61
2024/03/17 09:11:09;;;;;;;3.72;1.80;;;23.90;46.90;;;;;;6153083;28;80741;-60
2024/03/17 09:14:09;;;;;;;3.85;1.42;;;23.80;46.60;;;;;;6152700;28;81066;-61
2024/03/17 09:17:10;;;;;;;3.22;1.70;;;23.90;46.90;;;;;;6166888;28;81071;-59
2024/03/17 09:20:11;;;;;;;2.45;1.33;;;23.90;46.50;;;;;;6162672;28;80452;-58
2024/03/17 09:23:11;;;;;;;4.18;1.80;;;23.90;46.20;;;;;;6153846;28;81871;-58
2024/03/17 09:26:14;;;;;;;2.70;1.55;;;23.90;46.20;;;;;;6154180;28;80637;-59
2024/03/17 09:29:17;;;;;;;2.75;1.50;;;23.90;46.30;;;;;;6153319;28;80953;-57
2024/03/17 09:32:18;;;;;;;1.83;1.33;;;23.90;46.10;;;;;;6165036;28;80830;-59
2024/03/17 09:35:18;;;;;;;3.70;1.83;;;23.90;46.00;;;;;;6168003;28;80789;-59
2024/03/17 09:38:19;;;;;;;3.83;1.60;;;23.90;46.20;;;;;;6168174;28;80887;-61
2024/03/17 09:41:19;;;;;;;2.08;1.27;;;23.90;45.90;;;;;;6172407;28;81067;-60
2024/03/17 09:44:20;;;;;;;3.58;1.48;;;23.90;45.60;;;;;;6170605;28;80974;-60
2024/03/17 09:47:21;;;;;;;2.45;1.48;;;23.90;45.60;;;;;;6172265;28;80956;-60
2024/03/17 09:50:21;;;;;;;3.90;1.90;;;24.00;45.20;;;;;;6170521;28;81531;-60
2024/03/17 09:53:22;;;;;;;3.33;1.38;;;24.00;45.30;;;;;;6173043;28;81229;-61
2024/03/17 09:56:23;;;;;;;2.65;1.45;;;24.00;45.40;;;;;;6174914;28;81692;-71
2024/03/17 09:59:23;;;;;;;1.67;1.20;;;24.00;45.50;;;;;;6181587;28;81706;-76
2024/03/17 10:02:24;;;;;;;2.00;1.30;;;24.00;45.30;;;;;;6183739;28;81495;-74
2024/03/17 10:05:25;;;;;;;5.18;1.85;;;24.10;45.50;;;;;;6165618;28;81086;-80
2024/03/17 10:08:26;;;;;;;3.70;1.67;;;24.00;45.10;;;;;;6184963;28;80726;-77
2024/03/17 10:11:26;;;;;;;2.08;1.48;;;24.10;45.40;;;;;;6172806;28;82202;-75
2024/03/17 10:14:27;;;;;;;2.25;1.50;;;24.10;45.50;;;;;;6180803;28;81805;-75
2024/03/17 10:17:27;;;;;;;2.72;1.40;;;24.20;45.40;;;;;;6160235;28;80743;-70
2024/03/17 10:20:28;;;;;;;3.30;1.33;;;24.10;45.30;;;;;;6170676;28;81056;-74
2024/03/17 10:23:28;;;;;;;2.92;1.50;;;24.10;45.40;;;;;;6181558;28;80858;-75
2024/03/17 10:26:29;;;;;;;2.20;1.23;;;24.10;45.20;;;;;;6173483;28;80435;-74
2024/03/17 10:29:30;;;;;;;3.00;1.60;;;24.10;45.20;;;;;;6173148;28;80779;-74
2024/03/17 10:32:30;;;;;;;2.97;1.75;;;24.10;45.10;;;;;;6182161;28;82452;-53
2024/03/17 10:35:31;;;;;;;3.53;1.05;;;24.10;45.10;;;;;;6178664;28;80441;-59
2024/03/17 10:38:32;;;;;;;2.92;1.88;;;24.10;44.90;;;;;;6177601;28;82596;-59
2024/03/17 10:41:33;;;;;;;2.95;1.48;;;24.00;44.80;;;;;;6163116;28;82663;-60
2024/03/17 10:44:34;;;;;;;2.47;1.30;;;24.00;45.40;;;;;;6170650;28;80572;-60
2024/03/17 10:47:34;;;;;;;3.13;1.52;;;24.10;45.10;;;;;;6156303;28;81727;-61
2024/03/17 10:50:35;;;;;;;2.75;1.48;;;24.10;45.10;;;;;;6158261;28;80656;-60
2024/03/17 10:53:36;;;;;;;2.72;1.23;;;24.20;45.20;;;;;;6159310;28;80638;-60
2024/03/17 10:56:38;;;;;;;1.38;1.27;;;24.20;45.30;;;;;;6158206;28;80341;-58
2024/03/17 10:59:40;;;;;;;1.27;1.10;;;24.30;45.20;;;;;;6165979;28;81175;-59
2024/03/17 11:02:41;;;;;;;2.60;1.40;;;24.30;45.20;;;;;;6169216;28;83159;-58
2024/03/17 11:05:41;;;;;;;2.13;1.30;;;24.30;45.10;;;;;;6165593;28;84943;-58
2024/03/17 11:08:42;;;;;;;1.77;1.48;;;24.40;45.30;;;;;;6166384;28;80512;-60
2024/03/17 11:11:43;;;;;;;2.75;1.35;;;24.40;45.20;;;;;;6173445;28;81023;-59
2024/03/17 11:14:44;;;;;;;2.22;1.42;;;24.40;44.90;;;;;;6171425;28;80570;-60
2024/03/17 11:17:44;;;;;;;6.35;1.80;;;24.40;44.90;;;;;;6168540;28;80850;-61
2024/03/17 11:20:45;;;;;;;1.90;1.30;;;24.50;44.80;;;;;;6171419;28;81074;-60
2024/03/17 11:23:45;;;;;;;3.50;1.35;;;24.50;44.80;;;;;;6166223;28;80510;-59
2024/03/17 11:26:46;;;;;;;4.15;1.42;;;24.50;44.80;;;;;;6168664;28;81285;-61
2024/03/17 11:29:46;;;;;;;2.10;1.48;;;24.50;44.80;;;;;;6163102;28;82740;-60
2024/03/17 11:32:47;;;;;;;1.58;1.40;;;24.40;44.40;;;;;;6163046;28;80438;-60
2024/03/17 11:35:48;;;;;;;3.38;1.60;;;24.40;44.40;;;;;;6156156;28;80534;-59
2024/03/17 11:38:48;;;;;;;3.55;1.30;;;24.40;44.30;;;;;;6153268;28;80827;-60
2024/03/17 11:41:49;;;;;;;3.03;1.38;;;24.40;44.70;;;;;;6169629;28;80462;-60
2024/03/17 11:44:49;;;;;;;4.22;1.48;;;24.50;44.50;;;;;;6156250;28;80462;-60
2024/03/17 11:47:50;;;;;;;3.05;1.85;;;24.40;44.60;;;;;;6170837;28;80926;-60
2024/03/17 11:50:50;;;;;;;3.67;1.60;;;24.40;44.20;;;;;;6168715;28;81002;-62
2024/03/17 11:53:51;;;;;;;2.88;1.50;;;24.40;44.30;;;;;;6166291;28;81109;-60
2024/03/17 11:56:51;;;;;;;2.95;1.40;;;24.40;44.20;;;;;;6164374;28;82321;-59
2024/03/17 11:59:52;;;;;;;5.07;1.60;;;24.40;44.70;;;;;;6172937;28;80638;-59
2024/03/17 12:02:53;;;;;;;3.08;1.65;;;24.40;44.20;;;;;;6168945;28;84049;-61
2024/03/17 12:05:53;;;;;;;2.67;1.50;;;24.40;43.90;;;;;;6173671;28;80532;-59
2024/03/17 12:08:54;;;;;;;3.60;1.40;;;24.30;44.00;;;;;;6171220;28;81072;-60
2024/03/17 12:11:55;;;;;;;2.85;1.05;;;24.30;44.60;;;;;;6168763;28;83505;-59
2024/03/17 12:14:55;;;;;;;2.75;1.10;;;24.30;44.30;;;;;;6169747;28;80511;-61
2024/03/17 12:17:59;;;;;;;3.08;1.52;;;24.30;44.70;;;;;;6175155;28;80355;-59
2024/03/17 12:21:00;;;;;;;1.80;1.30;;;24.30;44.80;;;;;;6169912;28;80136;-60
2024/03/17 12:24:00;;;;;;;2.70;1.27;;;24.30;44.40;;;;;;6170543;28;80969;-76
2024/03/17 12:27:02;;;;;;;3.60;1.40;;;24.30;44.30;;;;;;6174615;28;81663;-77
2024/03/17 12:30:03;;;;;;;2.85;1.50;;;24.30;45.40;;;;;;6172457;28;81688;-73
2024/03/17 12:33:04;;;;;;;3.05;1.50;;;24.40;44.90;;;;;;6177651;28;80614;-74
2024/03/17 12:36:07;;;;;;;5.72;1.88;;;24.30;44.40;;;;;;6175659;28;80743;-73
2024/03/17 12:39:08;;;;;;;2.70;1.50;;;24.40;44.60;;;;;;6155759;28;81281;-76
2024/03/17 12:42:09;;;;;;;6.25;1.55;;;24.40;44.70;;;;;;6165306;28;81400;-76
2024/03/17 12:45:09;;;;;;;2.85;1.40;;;24.40;44.20;;;;;;6179156;28;80661;-75
2024/03/17 12:48:10;;;;;;;3.13;1.50;;;24.40;44.60;;;;;;6178867;28;81038;-69
2024/03/17 12:51:11;;;;;;;4.13;1.88;;;24.50;45.10;;;;;;6175035;28;80647;-75
2024/03/17 12:54:11;;;;;;;4.05;1.70;;;24.30;39.70;;;;;;6167251;28;80239;-76
2024/03/17 13:00:31;;;;;;;2.53;1.38;;;24.30;39.80;;;;;;6162551;28;83708;-56
2024/03/17 13:03:33;;;;;;;3.85;1.80;;;24.40;40.90;;;;;;6168344;28;81065;-56
2024/03/17 13:06:34;;;;;;;4.40;1.60;;;24.40;41.80;;;;;;6151451;28;80556;-59
2024/03/17 13:09:34;;;;;;;3.38;1.80;;;24.40;42.20;;;;;;6152054;28;80383;-56
2024/03/17 13:12:35;;;;;;;9.10;2.88;;;24.40;42.50;;;;;;6151980;28;81672;-56
2024/03/17 13:15:35;;;;;;;6.53;2.45;;;24.40;43.30;;;;;;6160906;28;82724;-56
2024/03/17 13:18:36;;;;;;;14.27;3.97;;;24.40;44.10;;;;;;6176823;28;80152;-60
2024/03/17 13:21:37;;;;;;;10.98;3.75;;;24.40;44.50;;;;;;6159942;28;80457;-60
2024/03/17 13:24:37;;;;;;;13.52;3.85;;;24.40;45.20;;;;;;6160358;28;80863;-60
2024/03/17 13:27:38;;;;;;;11.90;3.35;;;24.40;45.10;;;;;;6168590;28;81195;-59
2024/03/17 13:30:39;;;;;;;10.23;3.30;;;24.40;46.40;;;;;;6162558;28;80401;-59
2024/03/17 13:33:40;;;;;;;15.02;4.38;;;24.40;46.00;;;;;;6171505;28;80836;-60
2024/03/17 13:36:40;;;;;;;15.55;4.25;;;24.40;46.50;;;;;;6161534;28;81108;-56
2024/03/17 13:39:41;;;;;;;7.93;3.42;;;24.50;46.50;;;;;;6160889;28;83158;-55
2024/03/17 13:42:42;;;;;;;12.32;4.32;;;24.50;46.60;;;;;;6157771;28;80038;-56
2024/03/17 13:45:47;;;;;;;17.67;4.57;;;24.50;46.60;;;;;;6179155;28;83416;-55
2024/03/17 13:48:48;;;;;;;;;;;24.50;46.70;;;;;;6172824;28;80345;-56
2024/03/17 13:51:48;;;;;;;16.20;3.53;;;24.50;45.80;;;;;;6188744;28;80776;-56
2024/03/17 13:54:49;;;;;;;11.25;3.28;;;24.50;46.40;;;;;;6179424;28;80973;-60
2024/03/17 13:57:51;;;;;;;11.60;3.70;;;24.50;46.00;;;;;;6181257;28;81070;-61
2024/03/17 14:00:52;;;;;;;11.02;3.95;;;24.50;46.40;;;;;;6181236;28;80578;-60
2024/03/17 14:03:52;;;;;;;13.43;3.78;;;24.50;46.60;;;;;;6176889;28;83173;-60
2024/03/17 14:06:53;;;;;;;9.50;3.85;;;24.50;46.20;;;;;;6173146;28;80695;-59
2024/03/17 14:09:53;;;;;;;10.95;3.90;;;24.50;46.40;;;;;;6157583;28;82451;-61
2024/03/17 14:12:54;;;;;;;13.48;4.35;;;24.50;46.20;;;;;;6171078;28;85105;-61
2024/03/17 14:15:54;;;;;;;78.55;52.83;;;24.50;46.30;;;;;;6180523;28;80866;-58
2024/03/17 14:18:55;;;;;;;98.72;69.50;;;24.60;46.40;;;;;;6176692;28;83245;-59
2024/03/17 14:21:56;;;;;;;113.45;80.88;;;24.50;45.50;;;;;;6176287;28;84384;-59
2024/03/17 14:24:56;;;;;;;91.13;69.00;;;24.50;43.60;;;;;;6166626;28;84128;-61
2024/03/17 14:27:57;;;;;;;63.90;45.83;;;24.40;41.20;;;;;;6165721;28;82888;-59
2024/03/17 14:30:58;;;;;;;46.85;32.20;;;24.40;39.90;;;;;;6173576;28;83217;-61
2024/03/17 14:33:58;;;;;;;36.92;25.92;;;24.30;38.70;;;;;;6170128;28;83701;-58
2024/03/17 14:36:59;;;;;;;32.17;19.52;;;24.30;37.70;;;;;;6169437;28;84563;-56
2024/03/17 14:39:59;;;;;;;24.95;14.98;;;24.30;37.60;;;;;;6161809;28;83490;-57
2024/03/17 14:43:02;;;;;;;23.13;12.93;;;24.20;36.90;;;;;;6166994;28;84578;-57
2024/03/17 14:46:03;;;;;;;21.00;12.25;;;24.10;36.60;;;;;;6173702;28;83387;-54
2024/03/17 14:49:04;;;;;;;21.65;12.15;;;24.10;36.40;;;;;;6171002;28;83343;-58
2024/03/17 14:52:05;;;;;;;16.35;8.05;;;24.00;36.70;;;;;;6170843;28;83230;-62
2024/03/17 14:55:07;;;;;;;14.25;6.90;;;24.00;36.00;;;;;;6171886;28;82782;-62
2024/03/17 14:58:07;;;;;;;9.40;5.57;;;24.00;35.10;;;;;;6174639;28;80526;-61
2024/03/17 15:01:09;;;;;;;13.00;5.05;;;24.00;34.60;;;;;;6172765;28;80893;-59
2024/03/17 15:04:09;;;;;;;10.55;4.53;;;24.00;34.70;;;;;;6174742;28;83282;-60
2024/03/17 15:07:10;;;;;;;6.75;3.85;;;24.00;35.20;;;;;;6167121;28;83498;-62
2024/03/17 15:10:23;;;;;;;6.60;3.63;;;23.90;33.80;;;;;;6178193;28;80285;-61
2024/03/17 15:13:23;;;;;;;8.10;3.35;;;23.90;34.30;;;;;;6180126;28;80878;-61
2024/03/17 15:16:24;;;;;;;6.70;4.13;;;23.90;34.70;;;;;;6178647;28;82002;-60
2024/03/17 15:19:25;;;;;;;3.38;2.38;;;23.90;34.30;;;;;;6173109;28;80027;-62
2024/03/17 15:22:26;;;;;;;6.70;3.35;;;23.90;33.70;;;;;;6165179;28;80459;-61
2024/03/17 15:25:27;;;;;;;4.40;2.15;;;23.90;34.00;;;;;;6156536;28;80309;-64
2024/03/17 15:28:27;;;;;;;4.43;2.58;;;23.90;34.30;;;;;;6155514;28;80837;-61
2024/03/17 15:31:28;;;;;;;6.05;2.60;;;23.90;34.40;;;;;;6160349;28;80888;-61
2024/03/17 15:34:33;;;;;;;5.55;2.67;;;23.90;34.90;;;;;;6155079;28;80655;-62
2024/03/17 15:37:33;;;;;;;4.77;2.80;;;23.90;35.40;;;;;;6151538;28;85624;-59
2024/03/17 15:40:35;;;;;;;5.57;2.55;;;24.00;36.00;;;;;;6167920;28;82624;-61
2024/03/17 15:43:37;;;;;;;6.07;2.70;;;24.00;36.50;;;;;;6155092;28;80383;-60
2024/03/17 15:46:38;;;;;;;5.60;2.70;;;24.00;36.70;;;;;;6155073;28;80525;-60